createdAt,value
2023-03-26T00:32:17.807Z,53.07
2023-03-26T00:33:20.143Z,53.87
2023-03-26T00:34:22.937Z,54.00
2023-03-26T00:35:25.499Z,54.00
2023-03-26T00:36:28.680Z,54.04
2023-03-26T00:37:31.117Z,54.03
2023-03-26T00:38:33.349Z,54.05
2023-03-26T01:14:53.196Z,53.64
2023-03-26T01:15:55.637Z,54.21
2023-03-26T01:18:10.360Z,54.31
2023-03-26T01:20:25.956Z,54.31
2023-03-26T01:21:29.302Z,54.31
2023-03-26T01:22:34.778Z,54.29
2023-03-26T01:24:54.240Z,54.17
2023-03-26T01:27:21.392Z,54.11
2023-03-26T01:28:26.524Z,54.11
2023-03-26T01:29:38.427Z,54.00
2023-03-26T01:32:18.828Z,53.87
2023-03-26T01:33:47.747Z,53.89
2023-03-26T01:36:23.294Z,53.75
2023-03-26T01:37:41.270Z,53.75
2023-03-26T01:38:53.027Z,53.67
2023-03-26T01:39:59.197Z,53.64
2023-03-26T01:41:17.386Z,53.59
2023-03-26T01:42:23.269Z,53.58
2023-03-26T01:43:32.027Z,53.50
2023-03-26T01:44:37.900Z,53.47
2023-03-26T01:45:44.073Z,53.44
2023-03-26T01:46:48.086Z,53.43
2023-03-26T01:47:50.954Z,53.42
2023-03-26T01:48:53.723Z,53.39
2023-03-26T01:49:56.095Z,53.38
2023-03-26T01:50:58.379Z,53.32
2023-03-26T01:52:00.534Z,53.32
2023-03-26T01:53:03.501Z,53.28
2023-03-26T11:09:26.284Z,55.43
2023-03-26T11:12:40.455Z,56.75
2023-03-26T11:13:46.255Z,57.78
2023-03-26T11:15:18.994Z,58.10
2023-03-26T11:16:39.696Z,58.77
2023-03-26T11:18:02.629Z,59.39
2023-03-26T11:19:23.353Z,60.04
2023-03-26T11:22:04.412Z,60.60
2023-03-26T11:23:22.754Z,61.55
2023-03-26T11:24:53.221Z,61.76
2023-03-26T11:26:07.942Z,61.44
2023-03-26T11:27:21.282Z,61.46
2023-03-26T11:28:29.626Z,61.99
2023-03-26T11:29:35.881Z,62.11
2023-03-26T11:30:56.836Z,62.65
2023-03-26T11:32:21.272Z,62.52
2023-03-26T11:33:34.080Z,62.53
2023-03-26T11:35:02.845Z,62.19
2023-03-26T11:37:31.337Z,62.20
2023-03-26T11:40:04.889Z,62.54
2023-03-26T11:42:24.902Z,63.01
2023-03-26T11:43:35.516Z,63.11
2023-03-26T11:44:56.360Z,63.24
2023-03-26T11:46:01.279Z,63.15
2023-03-26T11:47:07.997Z,63.31
2023-03-26T11:48:32.269Z,63.41
2023-03-26T11:49:34.546Z,64.26
2023-03-26T11:50:40.253Z,64.38
2023-03-26T11:51:45.412Z,63.59
2023-03-26T11:52:47.656Z,63.51
2023-03-26T11:53:49.697Z,62.54
2023-03-26T11:54:51.861Z,62.65
2023-03-26T11:56:12.843Z,62.96
2023-03-26T11:58:38.894Z,63.30
2023-03-26T12:32:09.890Z,60.61
2023-03-26T12:33:22.527Z,61.12
2023-03-26T12:34:31.935Z,61.04
2023-03-26T12:35:35.777Z,61.62
2023-03-26T12:36:38.110Z,60.10
2023-03-26T12:37:42.131Z,60.09
2023-03-26T12:38:44.755Z,60.29
2023-03-26T12:40:07.748Z,60.82
2023-03-26T12:41:08.864Z,60.67
2023-03-26T12:44:52.934Z,61.08
2023-03-26T12:44:59.019Z,60.60
2023-03-26T12:47:54.475Z,60.48
2023-03-26T12:48:00.766Z,60.31
2023-03-26T12:48:33.454Z,60.37
2023-03-26T12:49:36.119Z,59.65
2023-03-26T12:50:42.823Z,59.33
2023-03-26T12:51:55.086Z,59.56
2023-03-26T12:54:37.414Z,58.96
2023-03-26T12:57:12.132Z,58.04
2023-03-26T12:58:38.715Z,58.71
2023-03-26T12:59:51.166Z,58.85
2023-03-26T13:01:19.308Z,57.69
2023-03-26T13:02:34.044Z,57.13
2023-03-26T13:04:09.383Z,57.39
2023-03-26T13:05:33.328Z,56.41
2023-03-26T13:07:00.031Z,56.33
2023-03-26T13:08:05.724Z,56.96
2023-03-26T13:09:30.360Z,57.10
2023-03-26T13:10:39.537Z,57.78
2023-03-26T13:12:04.825Z,58.97
2023-03-26T13:13:35.994Z,59.14
2023-03-26T13:15:11.230Z,58.92
2023-03-26T13:16:32.406Z,58.45
2023-03-26T13:19:04.016Z,58.56
2023-03-26T13:22:02.641Z,58.12
2023-03-26T13:23:27.955Z,57.92
2023-03-26T13:24:39.457Z,57.85
2023-03-26T13:26:01.493Z,57.69
2023-03-26T13:27:29.838Z,57.59
2023-03-26T13:28:43.466Z,57.79
2023-03-26T13:29:50.250Z,58.72
2023-03-26T13:30:56.748Z,57.99
2023-03-26T13:32:18.503Z,57.42
2023-03-26T13:33:47.073Z,57.93
2023-03-26T13:35:16.512Z,58.13
2023-03-26T13:36:40.629Z,58.04
2023-03-26T13:41:11.499Z,57.54
2023-03-26T13:42:26.113Z,57.34
2023-03-26T13:45:04.372Z,57.18
2023-03-26T13:46:16.038Z,56.74
2023-03-26T13:47:21.836Z,56.76
2023-03-26T13:48:30.347Z,56.49
2023-03-26T13:51:19.383Z,56.83
2023-03-26T13:53:56.592Z,56.72
2023-03-26T13:55:16.134Z,55.81
2023-03-26T13:56:22.045Z,56.16
2023-03-26T13:57:27.759Z,56.22
2023-03-26T13:58:51.812Z,55.82
2023-03-26T14:00:03.255Z,55.67
2023-03-26T14:01:12.890Z,56.00
2023-03-26T14:03:54.235Z,56.34
2023-03-26T14:06:12.927Z,56.42
2023-03-26T14:07:42.503Z,55.75
2023-03-26T14:08:48.740Z,56.05
2023-03-26T14:09:55.216Z,56.35
2023-03-26T14:11:10.261Z,56.63
2023-03-26T14:12:25.288Z,56.57
2023-03-26T14:13:40.558Z,56.61
2023-03-26T14:14:52.791Z,56.07
2023-03-26T14:17:46.632Z,56.55
2023-03-26T14:19:09.368Z,57.26
2023-03-26T14:20:24.715Z,58.34
2023-03-26T14:21:42.767Z,58.77
2023-03-26T14:24:39.265Z,58.70
2023-03-26T14:25:48.571Z,59.19
2023-03-26T14:27:00.695Z,59.57
2023-03-26T14:28:26.074Z,60.34
2023-03-26T14:29:56.722Z,61.02
2023-03-26T14:32:30.664Z,61.17
2023-03-26T14:33:51.784Z,59.75
2023-03-26T14:37:18.935Z,61.41
2023-03-26T14:40:06.996Z,58.99
2023-03-26T14:41:24.748Z,59.91
2023-03-26T14:42:39.058Z,59.83
2023-03-26T14:43:47.446Z,60.49
2023-03-26T14:45:15.191Z,59.61
2023-03-26T14:46:30.034Z,59.99
2023-03-26T14:47:36.313Z,59.28
2023-03-26T14:48:56.920Z,58.84
2023-03-26T14:50:31.745Z,59.31
2023-03-26T14:51:59.953Z,59.16
2023-03-26T14:53:08.243Z,59.63
2023-03-26T14:54:20.496Z,59.76
2023-03-26T14:55:32.434Z,60.01
2023-03-26T14:56:47.435Z,59.71
2023-03-26T14:58:11.513Z,59.75
2023-03-26T14:59:29.230Z,58.95
2023-03-26T15:01:04.002Z,59.07
2023-03-26T15:04:28.295Z,59.05
2023-03-26T15:07:28.010Z,58.50
2023-03-26T15:08:43.989Z,58.38
2023-03-26T15:10:23.242Z,58.13
2023-03-26T15:11:55.183Z,58.52
2023-03-26T15:13:25.748Z,58.20
2023-03-26T15:15:05.737Z,58.51
2023-03-26T15:17:58.642Z,58.91
2023-03-26T15:19:37.301Z,59.19
2023-03-26T15:21:09.173Z,59.32
2023-03-26T15:22:31.425Z,59.63
2023-03-26T15:25:33.684Z,60.27
2023-03-26T15:26:56.098Z,60.28
2023-03-26T15:28:14.750Z,60.16
2023-03-26T15:30:46.500Z,61.05
2023-03-26T15:32:09.278Z,60.54
2023-03-26T15:34:54.711Z,61.36
2023-03-26T15:36:34.761Z,61.69
2023-03-26T15:38:13.917Z,62.43
2023-03-26T15:39:35.281Z,62.54
2023-03-26T15:40:58.813Z,63.00
2023-03-26T15:42:22.951Z,63.54
2023-03-26T15:43:31.964Z,63.92
2023-03-26T15:44:56.419Z,64.17
2023-03-26T15:46:15.301Z,64.58
2023-03-26T15:47:48.875Z,64.74
2023-03-26T15:48:58.158Z,65.01
2023-03-26T15:50:36.294Z,65.21
2023-03-26T15:53:10.444Z,65.46
2023-03-26T15:54:30.791Z,65.87
2023-03-26T15:55:35.823Z,65.32
2023-03-26T15:56:57.024Z,65.17
2023-03-26T15:58:12.414Z,65.06
2023-03-26T15:59:36.105Z,65.37
2023-03-26T16:00:58.667Z,65.88
2023-03-26T16:02:35.426Z,66.23
2023-03-26T16:03:59.317Z,66.43
2023-03-26T16:05:26.267Z,66.53
2023-03-26T16:06:32.207Z,66.40
2023-03-26T16:08:13.703Z,66.48
2023-03-26T16:09:46.058Z,66.71
2023-03-26T16:11:00.186Z,66.95
2023-03-26T16:12:18.446Z,67.07
2023-03-26T16:13:24.225Z,67.18
2023-03-26T16:14:44.829Z,67.17
2023-03-26T16:15:56.678Z,67.22
2023-03-26T16:17:01.117Z,67.55
2023-03-26T16:18:10.269Z,67.58
2023-03-26T16:20:34.627Z,67.71
2023-03-26T16:21:40.693Z,67.76
2023-03-26T16:22:59.044Z,67.94
2023-03-26T16:24:11.211Z,67.94
2023-03-26T16:25:27.298Z,67.81
2023-03-26T16:26:53.264Z,67.64
2023-03-26T16:28:14.333Z,67.65
2023-03-26T16:29:22.405Z,67.67
2023-03-26T16:30:28.404Z,68.12
2023-03-26T16:31:38.363Z,68.30
2023-03-26T16:32:43.233Z,68.43
2023-03-26T16:33:51.681Z,68.41
2023-03-26T16:36:44.430Z,68.61
2023-03-26T16:37:48.847Z,68.64
2023-03-26T16:38:55.147Z,68.48
2023-03-26T16:41:31.013Z,68.56
2023-03-26T16:42:39.504Z,68.53
2023-03-26T16:43:48.040Z,68.59
2023-03-26T16:45:12.786Z,68.82
2023-03-26T16:46:37.413Z,68.78
2023-03-26T16:49:06.923Z,68.72
2023-03-26T16:50:16.548Z,69.31
2023-03-26T16:51:28.353Z,69.61
2023-03-26T16:54:32.299Z,69.70
2023-03-26T16:55:45.870Z,70.06
2023-03-26T16:57:02.658Z,69.76
2023-03-26T16:58:30.597Z,69.82
2023-03-26T17:00:04.626Z,69.96
2023-03-26T17:03:05.168Z,69.81
2023-03-26T17:04:20.086Z,69.70
2023-03-26T17:05:34.363Z,69.54
2023-03-26T17:06:59.234Z,69.41
2023-03-26T17:08:06.106Z,69.39
2023-03-26T17:09:24.301Z,69.40
2023-03-26T17:10:38.943Z,69.40
2023-03-26T17:11:44.866Z,69.50
2023-03-26T17:12:56.628Z,69.42
2023-03-26T17:14:19.292Z,69.39
2023-03-26T17:15:43.771Z,69.50
2023-03-26T17:17:05.089Z,69.54
2023-03-26T17:18:11.398Z,69.59
2023-03-26T17:19:19.988Z,69.70
2023-03-26T17:21:03.519Z,69.62
2023-03-26T17:22:38.520Z,69.61
2023-03-26T17:23:59.440Z,69.40
2023-03-26T17:26:58.815Z,69.00
2023-03-26T17:28:22.052Z,69.04
2023-03-26T17:29:33.859Z,68.93
2023-03-26T17:30:52.322Z,68.76
2023-03-26T17:32:01.154Z,68.53
2023-03-26T17:33:07.446Z,68.26
2023-03-26T17:34:31.936Z,68.23
2023-03-26T17:35:48.487Z,68.12
2023-03-26T17:38:20.501Z,68.21
2023-03-26T17:39:45.169Z,68.62
2023-03-26T17:40:53.909Z,68.67
2023-03-26T17:43:51.962Z,68.38
2023-03-26T17:46:43.563Z,67.94
2023-03-26T17:47:55.088Z,67.94
2023-03-26T17:50:44.555Z,67.36
2023-03-26T17:53:28.323Z,67.00
2023-03-26T17:55:44.948Z,67.16
2023-03-26T17:56:48.070Z,67.22
2023-03-26T17:57:59.382Z,66.86
2023-03-26T17:59:11.747Z,67.14
2023-03-26T18:00:09.680Z,67.04
2023-03-26T18:01:35.399Z,67.28
2023-03-26T18:02:41.989Z,67.19
2023-03-26T18:03:51.210Z,67.02
2023-03-26T18:04:55.040Z,67.20
2023-03-26T18:06:00.905Z,67.00
2023-03-26T18:07:19.114Z,66.71
2023-03-26T18:08:31.080Z,67.01
2023-03-26T18:09:52.188Z,67.10
2023-03-26T18:11:13.125Z,67.24
2023-03-26T18:12:28.783Z,67.21
2023-03-26T18:13:41.373Z,67.50
2023-03-26T18:14:56.795Z,67.25
2023-03-26T18:16:14.973Z,67.33
2023-03-26T18:17:17.861Z,67.39
2023-03-26T18:18:30.340Z,67.46
2023-03-26T18:19:47.180Z,67.32
2023-03-26T18:20:52.465Z,66.93
2023-03-26T18:22:01.749Z,66.56
2023-03-26T18:23:13.796Z,66.58
2023-03-26T18:24:20.320Z,66.72
2023-03-26T18:25:32.211Z,66.67
2023-03-26T18:27:53.277Z,65.79
2023-03-26T18:29:14.370Z,65.72
2023-03-26T18:31:59.309Z,65.57
2023-03-26T18:33:04.784Z,65.43
2023-03-26T18:35:26.054Z,65.15
2023-03-26T18:36:31.024Z,64.78
2023-03-26T18:37:36.012Z,64.78
2023-03-26T18:38:40.569Z,64.68
2023-03-26T18:40:16.979Z,64.67
2023-03-26T18:41:37.743Z,64.69
2023-03-26T18:42:49.116Z,64.77
2023-03-26T18:43:52.843Z,64.85
2023-03-26T18:45:00.833Z,64.69
2023-03-26T18:46:03.319Z,64.66
2023-03-26T18:47:07.048Z,64.75
2023-03-26T18:48:22.164Z,64.75
2023-03-26T18:49:26.890Z,64.74
2023-03-26T18:50:36.492Z,64.73
2023-03-26T18:51:54.175Z,64.73
2023-03-26T18:52:45.494Z,64.83
2023-03-26T18:53:51.230Z,64.78
2023-03-26T18:54:54.759Z,64.87
2023-03-26T18:55:58.352Z,65.05
2023-03-26T18:58:35.619Z,65.07
2023-03-26T18:59:42.315Z,65.57
2023-03-26T19:00:45.137Z,65.40
2023-03-26T19:01:50.008Z,65.44
2023-03-26T19:03:02.190Z,65.47
2023-03-26T19:04:06.659Z,65.56
2023-03-26T19:05:15.103Z,65.61
2023-03-26T19:06:18.180Z,65.64
2023-03-26T19:08:39.344Z,65.82
2023-03-26T19:09:43.071Z,66.04
2023-03-26T19:10:46.156Z,66.18
2023-03-26T19:11:51.196Z,66.03
2023-03-26T19:13:01.464Z,66.01
2023-03-26T19:14:19.014Z,66.11
2023-03-26T19:15:22.984Z,66.07
2023-03-26T19:16:28.651Z,65.90
2023-03-26T19:17:43.819Z,65.99
2023-03-26T19:18:46.636Z,65.98
2023-03-26T19:19:49.473Z,66.07
2023-03-26T19:21:01.230Z,66.12
2023-03-26T19:22:05.099Z,66.13
2023-03-26T19:23:11.535Z,65.96
2023-03-26T19:24:15.456Z,66.03
2023-03-26T19:26:31.654Z,66.02
2023-03-26T19:27:33.951Z,66.33
2023-03-26T19:29:59.292Z,66.24
2023-03-26T19:31:17.334Z,66.26
2023-03-26T19:32:31.698Z,66.37
2023-03-26T19:33:37.380Z,66.24
2023-03-26T19:34:41.905Z,66.31
2023-03-26T19:35:47.308Z,66.37
2023-03-26T19:36:56.519Z,66.60
2023-03-26T19:37:58.750Z,66.55
2023-03-26T19:41:36.823Z,67.17
2023-03-26T19:42:43.626Z,67.30
2023-03-26T19:43:57.719Z,67.29
2023-03-26T19:45:03.548Z,67.28
2023-03-26T19:46:06.853Z,67.42
2023-03-26T19:48:45.745Z,67.24
2023-03-26T19:49:52.014Z,67.20
2023-03-26T19:51:02.817Z,67.21
2023-03-26T19:51:18.518Z,67.30
2023-03-26T19:52:17.472Z,67.15
2023-03-26T19:53:23.149Z,67.24
2023-03-26T19:54:25.978Z,67.33
2023-03-26T19:55:28.217Z,67.43
2023-03-26T19:56:30.498Z,67.44
2023-03-26T19:57:33.771Z,67.60
2023-03-26T19:58:37.578Z,67.55
2023-03-26T19:59:40.510Z,67.58
2023-03-26T20:00:42.676Z,67.69
2023-03-26T20:01:45.918Z,67.56
2023-03-26T20:02:49.098Z,67.40
2023-03-26T20:04:00.475Z,67.45
2023-03-26T20:05:03.423Z,67.50
2023-03-26T20:06:06.106Z,67.34
2023-03-26T20:07:35.974Z,67.30
2023-03-26T20:08:27.407Z,67.18
2023-03-26T20:09:30.029Z,67.10
2023-03-26T20:10:32.695Z,67.09
2023-03-26T20:11:36.629Z,67.12
2023-03-26T20:12:39.177Z,67.14
2023-03-26T20:13:41.235Z,67.15
2023-03-26T20:14:44.492Z,67.22
2023-03-26T20:18:25.569Z,67.18
2023-03-26T20:19:27.674Z,67.25
2023-03-26T20:20:30.336Z,67.17
2023-03-26T20:21:32.615Z,67.19
2023-03-26T20:22:34.672Z,67.19
2023-03-26T20:23:36.776Z,67.25
2023-03-26T20:24:38.858Z,67.18
2023-03-26T20:25:44.568Z,67.22
2023-03-26T20:26:47.193Z,67.14
2023-03-26T20:27:49.839Z,67.12
2023-03-26T20:28:53.795Z,67.14
2023-03-26T20:29:56.174Z,67.14
2023-03-26T20:30:58.410Z,67.17
2023-03-26T20:32:00.802Z,67.15
2023-03-26T20:33:12.102Z,67.04
2023-03-26T20:34:21.620Z,67.10
2023-03-26T20:35:36.204Z,67.20
2023-03-26T20:36:33.881Z,67.22
2023-03-26T20:37:34.024Z,67.13
2023-03-26T20:38:39.619Z,67.16
2023-03-26T20:39:41.058Z,67.18
2023-03-26T20:40:43.966Z,67.21
2023-03-26T20:41:47.770Z,67.31
2023-03-26T20:42:49.993Z,67.18
2023-03-26T20:43:53.179Z,67.23
2023-03-26T20:44:55.204Z,67.14
2023-03-26T20:45:59.841Z,67.18
2023-03-26T20:47:02.571Z,67.16
2023-03-26T20:48:06.088Z,67.25
2023-03-26T20:49:09.244Z,67.25
2023-03-26T20:50:13.326Z,67.16
2023-03-26T20:51:16.095Z,67.12
2023-03-26T20:52:18.316Z,67.11
2023-03-26T20:53:21.130Z,67.08
2023-03-26T20:54:25.377Z,67.09
2023-03-26T20:55:28.715Z,67.08
2023-03-26T20:56:32.872Z,67.10
2023-03-26T20:57:35.687Z,67.04
2023-03-26T20:58:38.329Z,67.10
2023-03-26T20:59:40.760Z,67.06
2023-03-26T21:00:44.134Z,67.06
2023-03-26T21:01:47.668Z,67.05
2023-03-26T21:02:52.462Z,67.02
2023-03-26T21:03:54.709Z,67.06
2023-03-26T21:04:57.395Z,67.16
2023-03-26T21:06:01.158Z,67.15
2023-03-26T21:07:15.120Z,67.17
2023-03-26T21:08:09.954Z,67.19
2023-03-26T21:09:15.048Z,67.21
2023-03-26T21:10:19.079Z,67.23
2023-03-26T21:11:31.329Z,67.22
2023-03-26T21:12:37.139Z,67.23
2023-03-26T21:15:07.174Z,67.16
2023-03-26T21:16:08.984Z,67.39
2023-03-26T21:17:14.813Z,67.39
2023-03-26T21:18:17.866Z,67.33
2023-03-26T21:19:20.719Z,67.40
2023-03-26T21:20:25.358Z,67.40
2023-03-26T21:21:43.573Z,67.39
2023-03-26T21:23:18.542Z,67.43
2023-03-26T21:24:30.384Z,67.34
2023-03-26T21:25:42.224Z,67.47
2023-03-26T21:26:54.288Z,67.49
2023-03-26T21:28:08.984Z,67.50
2023-03-26T21:29:12.434Z,67.48
2023-03-26T21:30:16.316Z,67.46
2023-03-26T21:31:21.811Z,67.44
2023-03-26T21:32:24.674Z,67.47
2023-03-26T21:33:27.127Z,67.55
2023-03-26T21:34:29.701Z,67.48
2023-03-26T21:35:32.471Z,67.51
2023-03-26T21:36:35.852Z,67.53
2023-03-26T21:37:39.510Z,67.49
2023-03-26T21:38:42.381Z,67.51
2023-03-26T21:39:45.478Z,67.48
2023-03-26T21:40:58.665Z,67.52
2023-03-26T21:42:04.862Z,67.56
2023-03-26T21:43:03.825Z,67.53
2023-03-26T21:44:07.416Z,67.58
2023-03-26T21:45:10.842Z,67.60
2023-03-26T21:46:15.105Z,67.67
2023-03-26T21:47:18.094Z,67.63
2023-03-26T21:48:20.964Z,67.69
2023-03-26T21:49:23.571Z,67.71
2023-03-26T21:50:26.490Z,67.70
2023-03-26T21:51:29.346Z,67.54
2023-03-26T21:52:32.349Z,67.60
2023-03-26T21:53:35.188Z,67.62
2023-03-26T21:54:38.322Z,67.64
2023-03-26T21:57:22.100Z,67.60
2023-03-26T21:58:28.277Z,67.73
2023-03-26T21:59:52.648Z,67.66
2023-03-26T22:01:04.696Z,67.59
2023-03-26T22:02:26.264Z,67.59
2023-03-26T22:03:44.380Z,67.68
2023-03-26T22:04:52.969Z,67.76
2023-03-26T22:06:08.231Z,67.72
2023-03-26T22:07:28.593Z,67.73
2023-03-26T22:08:34.774Z,67.74
2023-03-26T22:09:37.846Z,67.67
2023-03-26T22:10:40.536Z,67.72
2023-03-26T22:11:42.818Z,67.73
2023-03-26T22:12:45.008Z,67.76
2023-03-26T22:13:47.677Z,67.77
2023-03-26T22:14:49.761Z,67.80
2023-03-26T22:15:51.958Z,67.81
2023-03-26T22:16:54.359Z,67.89
2023-03-26T22:18:02.149Z,67.83
2023-03-26T22:19:04.513Z,67.84
2023-03-26T22:21:19.794Z,67.96
2023-03-26T22:22:22.001Z,68.13
2023-03-26T22:23:24.195Z,68.17
2023-03-26T22:24:27.453Z,68.23
2023-03-26T22:25:29.657Z,68.17
2023-03-26T22:26:32.474Z,68.18
2023-03-26T22:27:34.653Z,68.21
2023-03-26T22:28:38.660Z,68.18
2023-03-26T22:29:40.631Z,68.16
2023-03-26T22:30:42.756Z,68.23
2023-03-26T22:31:45.012Z,68.20
2023-03-26T22:32:47.498Z,68.25
2023-03-26T22:33:49.792Z,68.26
2023-03-26T22:34:51.887Z,68.39
2023-03-26T22:35:55.603Z,68.42
2023-03-26T22:36:58.170Z,68.50
2023-03-26T22:38:00.951Z,68.56
2023-03-26T22:39:03.662Z,68.64
2023-03-26T22:40:07.086Z,68.74
2023-03-26T22:41:09.337Z,68.70
2023-03-26T22:42:11.391Z,68.79
2023-03-26T22:43:13.539Z,68.83
2023-03-26T22:44:20.280Z,68.91
2023-03-26T22:45:20.573Z,68.89
2023-03-26T22:46:23.850Z,68.86
2023-03-26T22:47:26.194Z,68.86
2023-03-26T22:48:29.679Z,68.84
2023-03-26T22:49:31.901Z,68.89
2023-03-26T22:50:33.956Z,68.95
2023-03-26T22:51:35.983Z,68.87
2023-03-26T22:52:38.099Z,68.87
2023-03-26T22:53:40.522Z,68.92
2023-03-26T22:54:42.794Z,69.00
2023-03-26T22:55:44.793Z,68.98
2023-03-26T22:56:47.228Z,69.03
2023-03-26T22:57:51.514Z,69.08
2023-03-26T22:58:54.352Z,69.04
2023-03-26T22:59:56.445Z,69.04
2023-03-26T23:01:08.477Z,69.04
2023-03-26T23:02:10.905Z,69.14
2023-03-26T23:03:14.264Z,69.27
2023-03-26T23:04:31.228Z,69.29
2023-03-26T23:05:20.664Z,69.40
2023-03-26T23:06:23.068Z,69.29
2023-03-26T23:07:27.160Z,69.26
2023-03-26T23:08:30.496Z,69.34
2023-03-26T23:09:32.764Z,69.34
2023-03-26T23:10:35.077Z,69.34
2023-03-26T23:11:40.904Z,69.38
2023-03-26T23:12:44.274Z,69.49
2023-03-26T23:13:46.809Z,69.58
2023-03-26T23:14:49.464Z,69.53
2023-03-26T23:15:56.297Z,69.58
2023-03-26T23:16:58.726Z,69.58
2023-03-26T23:18:01.085Z,69.52
2023-03-26T23:19:04.438Z,69.49
2023-03-26T23:20:09.643Z,69.42
2023-03-26T23:21:17.295Z,69.38
2023-03-26T23:22:19.936Z,69.35
2023-03-26T23:24:37.427Z,69.49
2023-03-26T23:25:39.548Z,69.67
2023-03-26T23:26:50.560Z,69.57
2023-03-26T23:27:45.866Z,69.54
2023-03-26T23:28:48.028Z,69.44
2023-03-26T23:29:50.599Z,69.33
2023-03-26T23:30:54.438Z,69.31
2023-03-26T23:31:57.927Z,69.30
2023-03-26T23:33:00.615Z,69.29
2023-03-26T23:34:02.801Z,69.26
2023-03-26T23:35:06.127Z,69.27
2023-03-26T23:36:09.652Z,69.25
2023-03-26T23:37:11.988Z,69.25
2023-03-26T23:38:14.164Z,69.25
2023-03-26T23:39:16.464Z,69.22
2023-03-26T23:40:18.954Z,69.20
2023-03-26T23:41:23.002Z,69.20
2023-03-26T23:42:29.182Z,69.21
2023-03-26T23:43:29.161Z,69.23
2023-03-26T23:44:31.394Z,69.21
2023-03-26T23:45:33.581Z,69.30
2023-03-26T23:46:35.755Z,69.28
2023-03-26T23:47:38.195Z,69.39
2023-03-26T23:48:40.503Z,69.45
2023-03-26T23:49:42.970Z,69.55
2023-03-26T23:50:45.448Z,69.46
2023-03-26T23:51:48.590Z,69.53
2023-03-26T23:52:51.220Z,69.64
2023-03-26T23:53:53.406Z,69.54
2023-03-26T23:54:56.573Z,69.54
2023-03-26T23:55:58.708Z,69.66
2023-03-26T23:57:04.461Z,69.74
2023-03-26T23:58:07.625Z,69.80
2023-03-26T23:59:09.697Z,69.83
